sensor_id;sensor_type;location;lat;lon;timestamp;P1;durP1;ratioP1;P2;durP2;ratioP2
36551;SDS011;22559;54.176;12.102;2023-03-26T00:00:36;5.30;;;2.30;;
36551;SDS011;22559;54.176;12.102;2023-03-26T00:03:04;12.03;;;2.87;;
36551;SDS011;22559;54.176;12.102;2023-03-26T00:05:30;11.20;;;2.57;;
36551;SDS011;22559;54.176;12.102;2023-03-26T00:07:56;8.77;;;2.73;;
36551;SDS011;22559;54.176;12.102;2023-03-26T00:10:22;9.37;;;3.27;;
36551;SDS011;22559;54.176;12.102;2023-03-26T00:12:49;8.80;;;2.87;;
36551;SDS011;22559;54.176;12.102;2023-03-26T00:15:15;6.17;;;2.97;;
36551;SDS011;22559;54.176;12.102;2023-03-26T00:17:41;8.90;;;2.93;;
36551;SDS011;22559;54.176;12.102;2023-03-26T00:20:10;7.43;;;3.40;;
36551;SDS011;22559;54.176;12.102;2023-03-26T00:22:37;7.77;;;2.70;;
36551;SDS011;22559;54.176;12.102;2023-03-26T00:25:04;7.87;;;3.13;;
36551;SDS011;22559;54.176;12.102;2023-03-26T00:27:31;9.73;;;2.80;;
36551;SDS011;22559;54.176;12.102;2023-03-26T00:29:57;8.27;;;2.87;;
36551;SDS011;22559;54.176;12.102;2023-03-26T00:32:24;5.87;;;2.70;;
36551;SDS011;22559;54.176;12.102;2023-03-26T00:34:54;5.80;;;2.40;;
36551;SDS011;22559;54.176;12.102;2023-03-26T00:37:22;4.60;;;2.93;;
36551;SDS011;22559;54.176;12.102;2023-03-26T00:39:54;3.57;;;2.30;;
36551;SDS011;22559;54.176;12.102;2023-03-26T00:42:23;8.33;;;2.93;;
36551;SDS011;22559;54.176;12.102;2023-03-26T00:44:50;2.30;;;1.90;;
36551;SDS011;22559;54.176;12.102;2023-03-26T00:47:21;6.73;;;2.37;;
36551;SDS011;22559;54.176;12.102;2023-03-26T00:49:48;7.30;;;2.40;;
36551;SDS011;22559;54.176;12.102;2023-03-26T00:52:15;7.70;;;2.70;;
36551;SDS011;22559;54.176;12.102;2023-03-26T00:54:46;5.00;;;2.67;;
36551;SDS011;22559;54.176;12.102;2023-03-26T00:57:12;7.33;;;2.67;;
36551;SDS011;22559;54.176;12.102;2023-03-26T00:59:38;6.20;;;2.73;;
36551;SDS011;22559;54.176;12.102;2023-03-26T01:02:05;7.13;;;2.90;;
36551;SDS011;22559;54.176;12.102;2023-03-26T01:04:34;6.83;;;2.50;;
36551;SDS011;22559;54.176;12.102;2023-03-26T01:07:11;3.03;;;2.13;;
36551;SDS011;22559;54.176;12.102;2023-03-26T01:09:42;4.40;;;2.17;;
36551;SDS011;22559;54.176;12.102;2023-03-26T01:12:14;4.93;;;2.63;;
36551;SDS011;22559;54.176;12.102;2023-03-26T01:14:48;7.23;;;3.20;;
36551;SDS011;22559;54.176;12.102;2023-03-26T01:17:15;5.83;;;2.47;;
36551;SDS011;22559;54.176;12.102;2023-03-26T01:22:29;5.20;;;2.60;;
36551;SDS011;22559;54.176;12.102;2023-03-26T01:24:55;5.27;;;2.53;;
36551;SDS011;22559;54.176;12.102;2023-03-26T01:27:28;7.37;;;2.50;;
36551;SDS011;22559;54.176;12.102;2023-03-26T01:32:37;4.73;;;2.80;;
36551;SDS011;22559;54.176;12.102;2023-03-26T01:38:26;5.60;;;2.57;;
36551;SDS011;22559;54.176;12.102;2023-03-26T01:41:09;6.93;;;2.83;;
36551;SDS011;22559;54.176;12.102;2023-03-26T01:46:18;5.20;;;2.50;;
36551;SDS011;22559;54.176;12.102;2023-03-26T01:48:46;9.20;;;3.30;;
36551;SDS011;22559;54.176;12.102;2023-03-26T01:51:13;8.27;;;2.63;;
36551;SDS011;22559;54.176;12.102;2023-03-26T01:53:51;8.70;;;3.07;;
36551;SDS011;22559;54.176;12.102;2023-03-26T02:07:07;13.07;;;3.77;;
36551;SDS011;22559;54.176;12.102;2023-03-26T02:09:45;5.73;;;3.00;;
36551;SDS011;22559;54.176;12.102;2023-03-26T02:12:14;7.37;;;3.10;;
36551;SDS011;22559;54.176;12.102;2023-03-26T02:14:41;9.60;;;2.80;;
36551;SDS011;22559;54.176;12.102;2023-03-26T02:17:08;8.07;;;2.93;;
36551;SDS011;22559;54.176;12.102;2023-03-26T02:19:35;9.07;;;2.83;;
36551;SDS011;22559;54.176;12.102;2023-03-26T02:22:07;8.47;;;2.90;;
36551;SDS011;22559;54.176;12.102;2023-03-26T02:24:35;6.83;;;2.80;;
36551;SDS011;22559;54.176;12.102;2023-03-26T02:27:04;9.03;;;3.07;;
36551;SDS011;22559;54.176;12.102;2023-03-26T02:29:32;8.40;;;3.20;;
36551;SDS011;22559;54.176;12.102;2023-03-26T02:32:07;6.53;;;2.40;;
36551;SDS011;22559;54.176;12.102;2023-03-26T02:34:37;5.07;;;2.33;;
36551;SDS011;22559;54.176;12.102;2023-03-26T02:37:03;4.97;;;2.50;;
36551;SDS011;22559;54.176;12.102;2023-03-26T02:39:29;3.20;;;2.60;;
36551;SDS011;22559;54.176;12.102;2023-03-26T02:41:54;4.07;;;1.83;;
36551;SDS011;22559;54.176;12.102;2023-03-26T02:44:20;6.77;;;2.23;;
36551;SDS011;22559;54.176;12.102;2023-03-26T02:46:46;9.27;;;3.10;;
36551;SDS011;22559;54.176;12.102;2023-03-26T02:49:11;8.13;;;3.00;;
36551;SDS011;22559;54.176;12.102;2023-03-26T02:51:37;6.17;;;3.57;;
36551;SDS011;22559;54.176;12.102;2023-03-26T02:54:03;9.60;;;3.23;;
36551;SDS011;22559;54.176;12.102;2023-03-26T02:56:30;9.13;;;3.20;;
36551;SDS011;22559;54.176;12.102;2023-03-26T02:58:57;6.53;;;2.90;;
36551;SDS011;22559;54.176;12.102;2023-03-26T03:01:22;6.97;;;3.20;;
36551;SDS011;22559;54.176;12.102;2023-03-26T03:03:48;7.97;;;3.33;;
36551;SDS011;22559;54.176;12.102;2023-03-26T03:06:14;9.93;;;2.70;;
36551;SDS011;22559;54.176;12.102;2023-03-26T03:08:43;7.80;;;2.87;;
36551;SDS011;22559;54.176;12.102;2023-03-26T03:11:16;13.07;;;3.47;;
36551;SDS011;22559;54.176;12.102;2023-03-26T03:13:46;11.50;;;3.33;;
36551;SDS011;22559;54.176;12.102;2023-03-26T03:16:12;5.57;;;2.77;;
36551;SDS011;22559;54.176;12.102;2023-03-26T03:18:37;7.97;;;3.50;;
36551;SDS011;22559;54.176;12.102;2023-03-26T03:21:04;12.03;;;3.30;;
36551;SDS011;22559;54.176;12.102;2023-03-26T03:23:30;6.83;;;2.97;;
36551;SDS011;22559;54.176;12.102;2023-03-26T03:25:56;5.23;;;3.10;;
36551;SDS011;22559;54.176;12.102;2023-03-26T03:28:22;5.83;;;2.70;;
36551;SDS011;22559;54.176;12.102;2023-03-26T03:30:49;3.63;;;2.10;;
36551;SDS011;22559;54.176;12.102;2023-03-26T03:33:18;4.87;;;2.30;;
36551;SDS011;22559;54.176;12.102;2023-03-26T03:35:45;7.27;;;2.17;;
36551;SDS011;22559;54.176;12.102;2023-03-26T03:38:12;5.30;;;1.90;;
36551;SDS011;22559;54.176;12.102;2023-03-26T03:40:38;6.30;;;2.60;;
36551;SDS011;22559;54.176;12.102;2023-03-26T03:43:04;5.83;;;2.37;;
36551;SDS011;22559;54.176;12.102;2023-03-26T03:45:30;7.00;;;2.87;;
36551;SDS011;22559;54.176;12.102;2023-03-26T03:47:55;4.53;;;2.57;;
36551;SDS011;22559;54.176;12.102;2023-03-26T03:50:21;9.07;;;2.67;;
36551;SDS011;22559;54.176;12.102;2023-03-26T03:52:47;7.77;;;3.00;;
36551;SDS011;22559;54.176;12.102;2023-03-26T03:55:12;7.00;;;2.83;;
36551;SDS011;22559;54.176;12.102;2023-03-26T03:57:39;7.20;;;2.77;;
36551;SDS011;22559;54.176;12.102;2023-03-26T04:00:05;6.67;;;2.50;;
36551;SDS011;22559;54.176;12.102;2023-03-26T04:02:34;4.47;;;2.20;;
36551;SDS011;22559;54.176;12.102;2023-03-26T04:05:00;5.23;;;2.47;;
36551;SDS011;22559;54.176;12.102;2023-03-26T04:07:27;7.00;;;2.30;;
36551;SDS011;22559;54.176;12.102;2023-03-26T04:09:56;4.30;;;2.13;;
36551;SDS011;22559;54.176;12.102;2023-03-26T04:12:25;4.07;;;2.10;;
36551;SDS011;22559;54.176;12.102;2023-03-26T04:14:52;2.23;;;2.00;;
36551;SDS011;22559;54.176;12.102;2023-03-26T04:17:18;5.87;;;1.60;;
36551;SDS011;22559;54.176;12.102;2023-03-26T04:19:45;6.37;;;2.03;;
36551;SDS011;22559;54.176;12.102;2023-03-26T04:22:11;6.03;;;1.90;;
36551;SDS011;22559;54.176;12.102;2023-03-26T04:24:37;2.97;;;1.97;;
36551;SDS011;22559;54.176;12.102;2023-03-26T04:27:04;4.57;;;1.90;;
36551;SDS011;22559;54.176;12.102;2023-03-26T04:29:33;4.40;;;2.40;;
36551;SDS011;22559;54.176;12.102;2023-03-26T04:32:07;2.93;;;1.80;;
36551;SDS011;22559;54.176;12.102;2023-03-26T04:34:43;6.10;;;1.83;;
36551;SDS011;22559;54.176;12.102;2023-03-26T04:37:13;5.90;;;2.50;;
36551;SDS011;22559;54.176;12.102;2023-03-26T04:39:51;5.90;;;2.07;;
36551;SDS011;22559;54.176;12.102;2023-03-26T04:42:18;6.00;;;1.83;;
36551;SDS011;22559;54.176;12.102;2023-03-26T04:44:45;3.50;;;1.90;;
36551;SDS011;22559;54.176;12.102;2023-03-26T04:47:14;3.97;;;2.00;;
36551;SDS011;22559;54.176;12.102;2023-03-26T04:49:43;4.23;;;2.03;;
36551;SDS011;22559;54.176;12.102;2023-03-26T04:52:11;6.70;;;1.93;;
36551;SDS011;22559;54.176;12.102;2023-03-26T04:54:38;4.77;;;1.83;;
36551;SDS011;22559;54.176;12.102;2023-03-26T04:57:06;7.07;;;2.23;;
36551;SDS011;22559;54.176;12.102;2023-03-26T04:59:38;8.03;;;1.97;;
36551;SDS011;22559;54.176;12.102;2023-03-26T05:02:05;4.83;;;2.30;;
36551;SDS011;22559;54.176;12.102;2023-03-26T05:04:33;2.20;;;1.60;;
36551;SDS011;22559;54.176;12.102;2023-03-26T05:07:00;5.00;;;1.67;;
36551;SDS011;22559;54.176;12.102;2023-03-26T05:09:27;6.80;;;1.63;;
36551;SDS011;22559;54.176;12.102;2023-03-26T05:11:52;4.03;;;1.63;;
36551;SDS011;22559;54.176;12.102;2023-03-26T05:14:18;4.17;;;1.50;;
36551;SDS011;22559;54.176;12.102;2023-03-26T05:16:44;3.83;;;1.60;;
36551;SDS011;22559;54.176;12.102;2023-03-26T05:19:12;3.80;;;1.50;;
36551;SDS011;22559;54.176;12.102;2023-03-26T05:21:38;2.17;;;1.30;;
36551;SDS011;22559;54.176;12.102;2023-03-26T05:24:04;5.10;;;1.83;;
36551;SDS011;22559;54.176;12.102;2023-03-26T05:26:30;3.30;;;1.53;;
36551;SDS011;22559;54.176;12.102;2023-03-26T05:28:57;3.43;;;1.67;;
36551;SDS011;22559;54.176;12.102;2023-03-26T05:31:23;3.80;;;1.10;;
36551;SDS011;22559;54.176;12.102;2023-03-26T05:33:51;2.70;;;1.47;;
36551;SDS011;22559;54.176;12.102;2023-03-26T05:36:17;3.03;;;1.50;;
36551;SDS011;22559;54.176;12.102;2023-03-26T05:38:43;3.00;;;1.70;;
36551;SDS011;22559;54.176;12.102;2023-03-26T05:41:13;3.30;;;1.40;;
36551;SDS011;22559;54.176;12.102;2023-03-26T05:43:39;3.10;;;1.47;;
36551;SDS011;22559;54.176;12.102;2023-03-26T05:46:06;3.33;;;1.60;;
36551;SDS011;22559;54.176;12.102;2023-03-26T05:48:32;4.70;;;1.70;;
36551;SDS011;22559;54.176;12.102;2023-03-26T05:50:57;1.20;;;1.10;;
36551;SDS011;22559;54.176;12.102;2023-03-26T05:53:24;4.97;;;1.70;;
36551;SDS011;22559;54.176;12.102;2023-03-26T05:55:51;2.60;;;1.50;;
36551;SDS011;22559;54.176;12.102;2023-03-26T05:58:25;2.20;;;1.13;;
36551;SDS011;22559;54.176;12.102;2023-03-26T06:01:10;2.00;;;1.00;;
36551;SDS011;22559;54.176;12.102;2023-03-26T06:03:40;6.40;;;1.57;;
36551;SDS011;22559;54.176;12.102;2023-03-26T06:06:09;2.80;;;1.27;;
36551;SDS011;22559;54.176;12.102;2023-03-26T06:08:47;5.00;;;1.63;;
36551;SDS011;22559;54.176;12.102;2023-03-26T06:11:15;7.57;;;1.77;;
36551;SDS011;22559;54.176;12.102;2023-03-26T06:13:42;3.47;;;1.50;;
36551;SDS011;22559;54.176;12.102;2023-03-26T06:16:11;4.87;;;1.93;;
36551;SDS011;22559;54.176;12.102;2023-03-26T06:18:37;5.80;;;2.20;;
36551;SDS011;22559;54.176;12.102;2023-03-26T06:21:04;5.90;;;1.73;;
36551;SDS011;22559;54.176;12.102;2023-03-26T06:23:30;6.87;;;1.70;;
36551;SDS011;22559;54.176;12.102;2023-03-26T06:25:56;2.63;;;1.40;;
36551;SDS011;22559;54.176;12.102;2023-03-26T06:28:22;5.77;;;2.00;;
36551;SDS011;22559;54.176;12.102;2023-03-26T06:30:48;6.13;;;2.30;;
36551;SDS011;22559;54.176;12.102;2023-03-26T06:33:15;5.53;;;2.07;;
36551;SDS011;22559;54.176;12.102;2023-03-26T06:35:41;8.03;;;2.30;;
36551;SDS011;22559;54.176;12.102;2023-03-26T06:38:09;4.40;;;1.77;;
36551;SDS011;22559;54.176;12.102;2023-03-26T06:40:35;6.03;;;2.00;;
36551;SDS011;22559;54.176;12.102;2023-03-26T06:43:00;5.97;;;1.63;;
36551;SDS011;22559;54.176;12.102;2023-03-26T06:45:26;2.77;;;1.60;;
36551;SDS011;22559;54.176;12.102;2023-03-26T06:47:53;6.57;;;2.40;;
36551;SDS011;22559;54.176;12.102;2023-03-26T06:50:18;8.27;;;2.27;;
36551;SDS011;22559;54.176;12.102;2023-03-26T06:52:44;10.67;;;2.90;;
36551;SDS011;22559;54.176;12.102;2023-03-26T06:55:10;10.13;;;2.67;;
36551;SDS011;22559;54.176;12.102;2023-03-26T06:57:36;13.60;;;2.60;;
36551;SDS011;22559;54.176;12.102;2023-03-26T07:00:03;14.37;;;2.90;;
36551;SDS011;22559;54.176;12.102;2023-03-26T07:02:30;8.53;;;2.97;;
36551;SDS011;22559;54.176;12.102;2023-03-26T07:04:55;14.03;;;2.80;;
36551;SDS011;22559;54.176;12.102;2023-03-26T07:07:21;11.80;;;2.53;;
36551;SDS011;22559;54.176;12.102;2023-03-26T07:09:48;10.93;;;2.57;;
36551;SDS011;22559;54.176;12.102;2023-03-26T07:12:15;11.53;;;3.13;;
36551;SDS011;22559;54.176;12.102;2023-03-26T07:14:40;14.70;;;2.50;;
36551;SDS011;22559;54.176;12.102;2023-03-26T07:17:06;12.43;;;3.33;;
36551;SDS011;22559;54.176;12.102;2023-03-26T07:19:32;9.40;;;2.60;;
36551;SDS011;22559;54.176;12.102;2023-03-26T07:21:57;8.40;;;2.60;;
36551;SDS011;22559;54.176;12.102;2023-03-26T07:24:23;5.97;;;2.00;;
36551;SDS011;22559;54.176;12.102;2023-03-26T07:29:50;10.93;;;3.30;;
36551;SDS011;22559;54.176;12.102;2023-03-26T07:38:07;10.67;;;2.73;;
36551;SDS011;22559;54.176;12.102;2023-03-26T07:45:50;16.20;;;3.30;;
36551;SDS011;22559;54.176;12.102;2023-03-26T07:48:19;10.80;;;2.80;;
36551;SDS011;22559;54.176;12.102;2023-03-26T07:50:51;6.90;;;2.37;;
36551;SDS011;22559;54.176;12.102;2023-03-26T07:53:20;12.10;;;2.90;;
36551;SDS011;22559;54.176;12.102;2023-03-26T08:01:05;7.03;;;2.83;;
36551;SDS011;22559;54.176;12.102;2023-03-26T08:06:34;9.30;;;2.77;;
36551;SDS011;22559;54.176;12.102;2023-03-26T08:11:39;11.87;;;3.00;;
36551;SDS011;22559;54.176;12.102;2023-03-26T08:27:37;9.23;;;3.33;;
36551;SDS011;22559;54.176;12.102;2023-03-26T08:30:10;13.50;;;2.60;;
36551;SDS011;22559;54.176;12.102;2023-03-26T08:32:41;9.93;;;2.93;;
36551;SDS011;22559;54.176;12.102;2023-03-26T08:35:16;16.43;;;3.47;;
36551;SDS011;22559;54.176;12.102;2023-03-26T08:37:42;9.53;;;3.87;;
36551;SDS011;22559;54.176;12.102;2023-03-26T08:40:09;15.00;;;3.63;;
36551;SDS011;22559;54.176;12.102;2023-03-26T08:48:32;11.33;;;2.83;;
36551;SDS011;22559;54.176;12.102;2023-03-26T08:56:38;15.00;;;4.10;;
36551;SDS011;22559;54.176;12.102;2023-03-26T09:08:55;12.93;;;3.13;;
36551;SDS011;22559;54.176;12.102;2023-03-26T09:11:04;7.70;;;3.00;;
36551;SDS011;22559;54.176;12.102;2023-03-26T09:19:24;11.53;;;2.80;;
36551;SDS011;22559;54.176;12.102;2023-03-26T09:22:20;14.43;;;3.50;;
36551;SDS011;22559;54.176;12.102;2023-03-26T09:31:01;3.80;;;2.67;;
36551;SDS011;22559;54.176;12.102;2023-03-26T09:37:22;15.47;;;2.70;;
36551;SDS011;22559;54.176;12.102;2023-03-26T09:40:14;9.70;;;2.67;;
36551;SDS011;22559;54.176;12.102;2023-03-26T09:42:43;11.47;;;3.33;;
36551;SDS011;22559;54.176;12.102;2023-03-26T10:13:29;11.17;;;2.43;;
36551;SDS011;22559;54.176;12.102;2023-03-26T10:29:14;17.00;;;3.43;;
36551;SDS011;22559;54.176;12.102;2023-03-26T10:31:55;17.07;;;3.67;;
36551;SDS011;22559;54.176;12.102;2023-03-26T10:34:42;11.30;;;2.60;;
36551;SDS011;22559;54.176;12.102;2023-03-26T10:51:36;8.30;;;2.50;;
36551;SDS011;22559;54.176;12.102;2023-03-26T10:56:46;10.03;;;2.90;;
36551;SDS011;22559;54.176;12.102;2023-03-26T10:59:15;10.93;;;2.47;;
36551;SDS011;22559;54.176;12.102;2023-03-26T11:10:09;12.50;;;3.17;;
36551;SDS011;22559;54.176;12.102;2023-03-26T11:17:55;14.60;;;3.17;;
36551;SDS011;22559;54.176;12.102;2023-03-26T11:31:20;13.67;;;5.30;;
36551;SDS011;22559;54.176;12.102;2023-03-26T11:33:56;9.67;;;2.83;;
36551;SDS011;22559;54.176;12.102;2023-03-26T11:36:30;9.37;;;2.77;;
36551;SDS011;22559;54.176;12.102;2023-03-26T11:39:02;9.20;;;2.50;;
36551;SDS011;22559;54.176;12.102;2023-03-26T11:41:32;10.23;;;2.73;;
36551;SDS011;22559;54.176;12.102;2023-03-26T11:46:52;15.57;;;2.77;;
36551;SDS011;22559;54.176;12.102;2023-03-26T11:49:25;12.00;;;2.60;;
36551;SDS011;22559;54.176;12.102;2023-03-26T11:51:53;12.83;;;3.20;;
36551;SDS011;22559;54.176;12.102;2023-03-26T11:54:19;15.40;;;2.90;;
36551;SDS011;22559;54.176;12.102;2023-03-26T11:56:49;8.57;;;2.73;;
36551;SDS011;22559;54.176;12.102;2023-03-26T11:59:27;12.07;;;2.70;;
36551;SDS011;22559;54.176;12.102;2023-03-26T12:01:58;13.97;;;3.00;;
36551;SDS011;22559;54.176;12.102;2023-03-26T12:04:51;6.57;;;2.60;;
36551;SDS011;22559;54.176;12.102;2023-03-26T12:07:32;7.23;;;2.53;;
36551;SDS011;22559;54.176;12.102;2023-03-26T12:10:03;7.33;;;2.30;;
36551;SDS011;22559;54.176;12.102;2023-03-26T12:12:32;7.43;;;2.50;;
36551;SDS011;22559;54.176;12.102;2023-03-26T12:15:02;11.20;;;3.07;;
36551;SDS011;22559;54.176;12.102;2023-03-26T12:19:57;10.13;;;2.57;;
36551;SDS011;22559;54.176;12.102;2023-03-26T12:22:36;10.63;;;2.63;;
36551;SDS011;22559;54.176;12.102;2023-03-26T12:27:47;14.23;;;3.00;;
36551;SDS011;22559;54.176;12.102;2023-03-26T12:30:20;9.57;;;2.47;;
36551;SDS011;22559;54.176;12.102;2023-03-26T12:32:47;7.40;;;2.30;;
36551;SDS011;22559;54.176;12.102;2023-03-26T12:35:15;11.27;;;3.30;;
36551;SDS011;22559;54.176;12.102;2023-03-26T12:37:43;6.43;;;2.73;;
36551;SDS011;22559;54.176;12.102;2023-03-26T12:40:26;11.77;;;2.77;;
36551;SDS011;22559;54.176;12.102;2023-03-26T12:42:55;7.73;;;2.33;;
36551;SDS011;22559;54.176;12.102;2023-03-26T12:45:30;5.73;;;2.57;;
36551;SDS011;22559;54.176;12.102;2023-03-26T12:48:02;12.00;;;2.60;;
36551;SDS011;22559;54.176;12.102;2023-03-26T12:50:31;6.60;;;2.60;;
36551;SDS011;22559;54.176;12.102;2023-03-26T12:56:19;12.03;;;2.90;;
36551;SDS011;22559;54.176;12.102;2023-03-26T12:59:32;11.37;;;2.57;;
36551;SDS011;22559;54.176;12.102;2023-03-26T13:15:47;5.73;;;2.33;;
36551;SDS011;22559;54.176;12.102;2023-03-26T13:29:09;15.00;;;2.93;;
36551;SDS011;22559;54.176;12.102;2023-03-26T13:31:53;7.40;;;2.43;;
36551;SDS011;22559;54.176;12.102;2023-03-26T13:45:23;14.70;;;2.90;;
36551;SDS011;22559;54.176;12.102;2023-03-26T13:47:52;8.07;;;2.20;;
36551;SDS011;22559;54.176;12.102;2023-03-26T13:50:28;6.83;;;2.03;;
36551;SDS011;22559;54.176;12.102;2023-03-26T13:52:58;5.20;;;2.60;;
36551;SDS011;22559;54.176;12.102;2023-03-26T13:55:40;10.80;;;2.17;;
36551;SDS011;22559;54.176;12.102;2023-03-26T14:01:05;8.77;;;2.87;;
36551;SDS011;22559;54.176;12.102;2023-03-26T14:09:26;6.57;;;2.30;;
36551;SDS011;22559;54.176;12.102;2023-03-26T14:31:07;5.10;;;2.33;;
36551;SDS011;22559;54.176;12.102;2023-03-26T14:42:18;4.60;;;1.87;;
36551;SDS011;22559;54.176;12.102;2023-03-26T14:44:55;9.60;;;3.83;;
36551;SDS011;22559;54.176;12.102;2023-03-26T14:47:43;6.77;;;2.53;;
36551;SDS011;22559;54.176;12.102;2023-03-26T14:50:36;22.37;;;14.00;;
36551;SDS011;22559;54.176;12.102;2023-03-26T14:53:30;4.50;;;3.33;;
36551;SDS011;22559;54.176;12.102;2023-03-26T14:56:02;13.37;;;7.87;;
36551;SDS011;22559;54.176;12.102;2023-03-26T14:58:59;7.40;;;2.03;;
36551;SDS011;22559;54.176;12.102;2023-03-26T15:33:09;2.80;;;1.70;;
36551;SDS011;22559;54.176;12.102;2023-03-26T15:51:47;3.07;;;1.30;;
36551;SDS011;22559;54.176;12.102;2023-03-26T15:54:25;1.60;;;1.13;;
36551;SDS011;22559;54.176;12.102;2023-03-26T16:09:54;2.20;;;2.00;;
36551;SDS011;22559;54.176;12.102;2023-03-26T16:15:38;2.37;;;1.50;;
36551;SDS011;22559;54.176;12.102;2023-03-26T16:20:47;1.30;;;1.20;;
36551;SDS011;22559;54.176;12.102;2023-03-26T16:26:10;0.90;;;0.90;;
36551;SDS011;22559;54.176;12.102;2023-03-26T16:33:49;1.10;;;1.10;;
36551;SDS011;22559;54.176;12.102;2023-03-26T16:36:28;2.23;;;1.03;;
36551;SDS011;22559;54.176;12.102;2023-03-26T16:41:33;1.40;;;0.90;;
36551;SDS011;22559;54.176;12.102;2023-03-26T16:52:46;2.27;;;1.20;;
36551;SDS011;22559;54.176;12.102;2023-03-26T17:00:48;1.30;;;1.20;;
36551;SDS011;22559;54.176;12.102;2023-03-26T17:03:31;2.30;;;1.10;;
36551;SDS011;22559;54.176;12.102;2023-03-26T17:06:20;2.43;;;1.03;;
36551;SDS011;22559;54.176;12.102;2023-03-26T17:11:35;0.80;;;0.80;;
36551;SDS011;22559;54.176;12.102;2023-03-26T17:19:48;1.07;;;1.07;;
36551;SDS011;22559;54.176;12.102;2023-03-26T17:31:11;1.20;;;1.20;;
36551;SDS011;22559;54.176;12.102;2023-03-26T17:33:47;1.57;;;1.47;;
36551;SDS011;22559;54.176;12.102;2023-03-26T17:41:10;1.10;;;1.10;;
36551;SDS011;22559;54.176;12.102;2023-03-26T17:43:43;1.67;;;1.30;;
36551;SDS011;22559;54.176;12.102;2023-03-26T17:51:41;2.03;;;1.57;;
36551;SDS011;22559;54.176;12.102;2023-03-26T17:56:49;1.43;;;1.40;;
36551;SDS011;22559;54.176;12.102;2023-03-26T17:59:18;2.50;;;1.30;;
36551;SDS011;22559;54.176;12.102;2023-03-26T18:01:50;1.57;;;1.47;;
36551;SDS011;22559;54.176;12.102;2023-03-26T18:04:35;1.90;;;1.70;;
36551;SDS011;22559;54.176;12.102;2023-03-26T18:12:58;1.67;;;1.30;;
36551;SDS011;22559;54.176;12.102;2023-03-26T18:18:34;1.30;;;1.30;;
36551;SDS011;22559;54.176;12.102;2023-03-26T18:21:07;1.83;;;1.37;;
36551;SDS011;22559;54.176;12.102;2023-03-26T18:23:37;1.67;;;1.40;;
36551;SDS011;22559;54.176;12.102;2023-03-26T18:26:09;3.57;;;1.77;;
36551;SDS011;22559;54.176;12.102;2023-03-26T18:28:53;1.57;;;1.47;;
36551;SDS011;22559;54.176;12.102;2023-03-26T18:31:34;1.13;;;1.13;;
36551;SDS011;22559;54.176;12.102;2023-03-26T18:34:05;1.20;;;1.20;;
36551;SDS011;22559;54.176;12.102;2023-03-26T18:36:37;1.23;;;1.13;;
36551;SDS011;22559;54.176;12.102;2023-03-26T18:39:03;3.17;;;1.20;;
36551;SDS011;22559;54.176;12.102;2023-03-26T18:41:30;28.90;;;20.50;;
36551;SDS011;22559;54.176;12.102;2023-03-26T18:44:01;1.70;;;1.60;;
36551;SDS011;22559;54.176;12.102;2023-03-26T18:46:30;3.47;;;3.13;;
36551;SDS011;22559;54.176;12.102;2023-03-26T18:48:59;1.73;;;1.63;;
36551;SDS011;22559;54.176;12.102;2023-03-26T18:51:26;1.93;;;1.80;;
36551;SDS011;22559;54.176;12.102;2023-03-26T18:53:54;5.27;;;3.30;;
36551;SDS011;22559;54.176;12.102;2023-03-26T18:58:58;2.03;;;1.60;;
36551;SDS011;22559;54.176;12.102;2023-03-26T19:01:27;2.30;;;1.30;;
36551;SDS011;22559;54.176;12.102;2023-03-26T19:03:59;1.20;;;1.13;;
36551;SDS011;22559;54.176;12.102;2023-03-26T19:06:28;1.00;;;1.00;;
36551;SDS011;22559;54.176;12.102;2023-03-26T19:09:03;1.20;;;1.10;;
36551;SDS011;22559;54.176;12.102;2023-03-26T19:11:32;3.07;;;1.50;;
36551;SDS011;22559;54.176;12.102;2023-03-26T19:14:07;1.20;;;1.20;;
36551;SDS011;22559;54.176;12.102;2023-03-26T19:16:39;1.40;;;1.10;;
36551;SDS011;22559;54.176;12.102;2023-03-26T19:19:08;1.30;;;1.30;;
36551;SDS011;22559;54.176;12.102;2023-03-26T19:21:41;1.57;;;1.40;;
36551;SDS011;22559;54.176;12.102;2023-03-26T19:24:06;3.00;;;1.20;;
36551;SDS011;22559;54.176;12.102;2023-03-26T19:26:33;1.20;;;1.20;;
36551;SDS011;22559;54.176;12.102;2023-03-26T19:29:00;2.30;;;1.17;;
36551;SDS011;22559;54.176;12.102;2023-03-26T19:31:32;1.70;;;1.60;;
36551;SDS011;22559;54.176;12.102;2023-03-26T19:36:27;1.10;;;1.10;;
36551;SDS011;22559;54.176;12.102;2023-03-26T19:43:54;1.33;;;1.10;;
36551;SDS011;22559;54.176;12.102;2023-03-26T19:46:23;1.33;;;1.20;;
36551;SDS011;22559;54.176;12.102;2023-03-26T19:48:50;1.33;;;1.23;;
36551;SDS011;22559;54.176;12.102;2023-03-26T19:51:19;1.37;;;1.27;;
36551;SDS011;22559;54.176;12.102;2023-03-26T19:53:56;1.07;;;1.00;;
36551;SDS011;22559;54.176;12.102;2023-03-26T19:56:24;1.07;;;1.07;;
36551;SDS011;22559;54.176;12.102;2023-03-26T19:58:51;1.00;;;1.00;;
36551;SDS011;22559;54.176;12.102;2023-03-26T20:01:22;1.23;;;1.20;;
36551;SDS011;22559;54.176;12.102;2023-03-26T20:03:51;1.33;;;1.27;;
36551;SDS011;22559;54.176;12.102;2023-03-26T20:06:20;1.70;;;1.43;;
36551;SDS011;22559;54.176;12.102;2023-03-26T20:08:46;1.70;;;1.60;;
36551;SDS011;22559;54.176;12.102;2023-03-26T20:11:22;1.60;;;1.50;;
36551;SDS011;22559;54.176;12.102;2023-03-26T20:13:57;1.27;;;1.27;;
36551;SDS011;22559;54.176;12.102;2023-03-26T20:16:26;2.00;;;1.87;;
36551;SDS011;22559;54.176;12.102;2023-03-26T20:18:56;4.43;;;3.90;;
36551;SDS011;22559;54.176;12.102;2023-03-26T20:21:26;10.77;;;6.43;;
36551;SDS011;22559;54.176;12.102;2023-03-26T20:23:52;2.37;;;2.20;;
36551;SDS011;22559;54.176;12.102;2023-03-26T20:26:18;3.30;;;1.73;;
36551;SDS011;22559;54.176;12.102;2023-03-26T20:28:46;1.60;;;1.50;;
36551;SDS011;22559;54.176;12.102;2023-03-26T20:31:13;3.60;;;1.60;;
36551;SDS011;22559;54.176;12.102;2023-03-26T20:33:41;3.07;;;1.83;;
36551;SDS011;22559;54.176;12.102;2023-03-26T20:36:09;2.37;;;2.20;;
36551;SDS011;22559;54.176;12.102;2023-03-26T20:38:37;3.17;;;1.63;;
36551;SDS011;22559;54.176;12.102;2023-03-26T20:41:03;4.00;;;1.83;;
36551;SDS011;22559;54.176;12.102;2023-03-26T20:43:29;3.17;;;1.93;;
36551;SDS011;22559;54.176;12.102;2023-03-26T20:45:55;3.63;;;1.77;;
36551;SDS011;22559;54.176;12.102;2023-03-26T20:48:23;1.83;;;1.70;;
36551;SDS011;22559;54.176;12.102;2023-03-26T20:50:51;2.93;;;1.60;;
36551;SDS011;22559;54.176;12.102;2023-03-26T20:53:18;2.70;;;2.27;;
36551;SDS011;22559;54.176;12.102;2023-03-26T20:55:44;1.70;;;1.70;;
36551;SDS011;22559;54.176;12.102;2023-03-26T20:58:14;2.43;;;1.53;;
36551;SDS011;22559;54.176;12.102;2023-03-26T21:00:42;1.63;;;1.53;;
36551;SDS011;22559;54.176;12.102;2023-03-26T21:03:12;1.90;;;1.40;;
36551;SDS011;22559;54.176;12.102;2023-03-26T21:05:40;1.60;;;1.50;;
36551;SDS011;22559;54.176;12.102;2023-03-26T21:08:08;1.73;;;1.50;;
36551;SDS011;22559;54.176;12.102;2023-03-26T21:10:39;1.50;;;1.50;;
36551;SDS011;22559;54.176;12.102;2023-03-26T21:15:43;1.67;;;1.57;;
36551;SDS011;22559;54.176;12.102;2023-03-26T21:18:09;2.30;;;1.60;;
36551;SDS011;22559;54.176;12.102;2023-03-26T21:20:35;1.67;;;1.57;;
36551;SDS011;22559;54.176;12.102;2023-03-26T21:23:22;1.27;;;1.27;;
36551;SDS011;22559;54.176;12.102;2023-03-26T21:26:09;1.50;;;1.50;;
36551;SDS011;22559;54.176;12.102;2023-03-26T21:28:46;1.70;;;1.60;;
36551;SDS011;22559;54.176;12.102;2023-03-26T21:31:17;1.50;;;1.40;;
36551;SDS011;22559;54.176;12.102;2023-03-26T21:33:44;1.70;;;1.60;;